sensor_id;sensor_type;location;lat;lon;timestamp;temperature;humidity
17284;DHT22;8760;52.248;20.952;2023-12-04T00:00:30;-1.30;99.90
17284;DHT22;8760;52.248;20.952;2023-12-04T00:02:57;-1.30;99.90
17284;DHT22;8760;52.248;20.952;2023-12-04T00:05:24;-1.30;99.90
17284;DHT22;8760;52.248;20.952;2023-12-04T00:07:50;-1.30;99.90
17284;DHT22;8760;52.248;20.952;2023-12-04T00:10:17;-1.30;99.90
17284;DHT22;8760;52.248;20.952;2023-12-04T00:12:44;-1.30;99.90
17284;DHT22;8760;52.248;20.952;2023-12-04T00:15:11;-1.30;99.90
17284;DHT22;8760;52.248;20.952;2023-12-04T00:17:39;-1.30;99.90
17284;DHT22;8760;52.248;20.952;2023-12-04T00:20:07;-1.30;99.90
17284;DHT22;8760;52.248;20.952;2023-12-04T00:22:34;-1.30;99.90
17284;DHT22;8760;52.248;20.952;2023-12-04T00:25:01;-1.30;99.90
17284;DHT22;8760;52.248;20.952;2023-12-04T00:27:28;-1.20;99.90
17284;DHT22;8760;52.248;20.952;2023-12-04T00:29:55;-1.20;99.90
17284;DHT22;8760;52.248;20.952;2023-12-04T00:32:23;-1.20;99.90
17284;DHT22;8760;52.248;20.952;2023-12-04T00:34:51;-1.10;99.90
17284;DHT22;8760;52.248;20.952;2023-12-04T00:37:18;-1.20;99.90
17284;DHT22;8760;52.248;20.952;2023-12-04T00:39:45;-1.20;99.90
17284;DHT22;8760;52.248;20.952;2023-12-04T00:42:12;-1.10;99.90
17284;DHT22;8760;52.248;20.952;2023-12-04T00:44:39;-1.10;99.90
17284;DHT22;8760;52.248;20.952;2023-12-04T00:47:05;-1.10;99.90
17284;DHT22;8760;52.248;20.952;2023-12-04T00:49:32;-1.10;99.90
17284;DHT22;8760;52.248;20.952;2023-12-04T00:52:00;-1.00;99.90
17284;DHT22;8760;52.248;20.952;2023-12-04T00:54:27;-1.10;99.90
17284;DHT22;8760;52.248;20.952;2023-12-04T00:56:54;-1.00;99.90
17284;DHT22;8760;52.248;20.952;2023-12-04T00:59:21;-1.00;99.90
17284;DHT22;8760;52.248;20.952;2023-12-04T01:01:47;-1.00;99.90
17284;DHT22;8760;52.248;20.952;2023-12-04T01:04:14;-1.00;99.90
17284;DHT22;8760;52.248;20.952;2023-12-04T01:06:41;-1.00;99.90
17284;DHT22;8760;52.248;20.952;2023-12-04T01:09:09;-1.00;99.90
17284;DHT22;8760;52.248;20.952;2023-12-04T01:11:36;-1.00;99.90
17284;DHT22;8760;52.248;20.952;2023-12-04T01:14:03;-1.10;99.90
17284;DHT22;8760;52.248;20.952;2023-12-04T01:16:30;-1.10;99.90
17284;DHT22;8760;52.248;20.952;2023-12-04T01:18:57;-1.00;99.90
17284;DHT22;8760;52.248;20.952;2023-12-04T01:21:24;-1.00;99.90
17284;DHT22;8760;52.248;20.952;2023-12-04T01:23:51;-1.00;99.90
17284;DHT22;8760;52.248;20.952;2023-12-04T01:26:19;-1.00;99.90
17284;DHT22;8760;52.248;20.952;2023-12-04T01:28:46;-1.00;99.90
17284;DHT22;8760;52.248;20.952;2023-12-04T01:31:12;-0.90;99.90
17284;DHT22;8760;52.248;20.952;2023-12-04T01:33:40;-1.00;99.90
17284;DHT22;8760;52.248;20.952;2023-12-04T01:36:08;-1.00;99.90
17284;DHT22;8760;52.248;20.952;2023-12-04T01:38:34;-1.00;99.90
17284;DHT22;8760;52.248;20.952;2023-12-04T01:41:01;-1.00;99.90
17284;DHT22;8760;52.248;20.952;2023-12-04T01:43:29;-1.00;99.90
17284;DHT22;8760;52.248;20.952;2023-12-04T01:45:57;-1.00;99.90
17284;DHT22;8760;52.248;20.952;2023-12-04T01:48:24;-0.90;99.90
17284;DHT22;8760;52.248;20.952;2023-12-04T01:50:51;-0.90;99.90
17284;DHT22;8760;52.248;20.952;2023-12-04T01:53:19;-0.90;99.90
17284;DHT22;8760;52.248;20.952;2023-12-04T01:55:46;-0.90;99.90
17284;DHT22;8760;52.248;20.952;2023-12-04T01:58:13;-0.90;99.90
17284;DHT22;8760;52.248;20.952;2023-12-04T02:00:41;-0.90;99.90
17284;DHT22;8760;52.248;20.952;2023-12-04T02:03:08;-0.90;99.90
17284;DHT22;8760;52.248;20.952;2023-12-04T02:05:35;-0.90;99.90
17284;DHT22;8760;52.248;20.952;2023-12-04T02:08:04;-0.90;99.90
17284;DHT22;8760;52.248;20.952;2023-12-04T02:10:30;-1.00;99.90
17284;DHT22;8760;52.248;20.952;2023-12-04T02:12:57;-1.10;99.90
17284;DHT22;8760;52.248;20.952;2023-12-04T02:15:24;-1.20;99.90
17284;DHT22;8760;52.248;20.952;2023-12-04T02:17:54;-1.20;99.90
17284;DHT22;8760;52.248;20.952;2023-12-04T02:20:31;-1.30;99.90
17284;DHT22;8760;52.248;20.952;2023-12-04T02:22:57;-1.30;99.90
17284;DHT22;8760;52.248;20.952;2023-12-04T02:25:26;-1.30;99.90
17284;DHT22;8760;52.248;20.952;2023-12-04T02:27:54;-1.40;99.90
17284;DHT22;8760;52.248;20.952;2023-12-04T02:30:23;-1.40;99.90
17284;DHT22;8760;52.248;20.952;2023-12-04T02:32:51;-1.40;99.90
17284;DHT22;8760;52.248;20.952;2023-12-04T02:35:21;-1.40;99.90
17284;DHT22;8760;52.248;20.952;2023-12-04T02:37:49;-1.50;99.90
17284;DHT22;8760;52.248;20.952;2023-12-04T02:40:16;-1.60;99.90
17284;DHT22;8760;52.248;20.952;2023-12-04T02:42:46;-1.60;99.90
17284;DHT22;8760;52.248;20.952;2023-12-04T02:45:12;-1.60;99.90
17284;DHT22;8760;52.248;20.952;2023-12-04T02:47:39;-1.60;99.90
17284;DHT22;8760;52.248;20.952;2023-12-04T02:50:07;-1.70;99.90
17284;DHT22;8760;52.248;20.952;2023-12-04T02:52:34;-1.70;99.90
17284;DHT22;8760;52.248;20.952;2023-12-04T02:55:00;-1.70;99.90
17284;DHT22;8760;52.248;20.952;2023-12-04T02:57:27;-1.70;99.90
17284;DHT22;8760;52.248;20.952;2023-12-04T02:59:55;-1.70;99.90
17284;DHT22;8760;52.248;20.952;2023-12-04T03:02:22;-1.70;99.90
17284;DHT22;8760;52.248;20.952;2023-12-04T03:04:49;-1.60;99.90
17284;DHT22;8760;52.248;20.952;2023-12-04T03:07:16;-1.60;99.90
17284;DHT22;8760;52.248;20.952;2023-12-04T03:09:45;-1.60;99.90
17284;DHT22;8760;52.248;20.952;2023-12-04T03:12:12;-1.60;99.90
17284;DHT22;8760;52.248;20.952;2023-12-04T03:14:39;-1.60;99.90
17284;DHT22;8760;52.248;20.952;2023-12-04T03:17:07;-1.60;99.90
17284;DHT22;8760;52.248;20.952;2023-12-04T03:19:34;-1.70;99.90
17284;DHT22;8760;52.248;20.952;2023-12-04T03:22:01;-1.70;99.90
17284;DHT22;8760;52.248;20.952;2023-12-04T03:24:28;-1.70;99.90
17284;DHT22;8760;52.248;20.952;2023-12-04T03:26:55;-1.70;99.90
17284;DHT22;8760;52.248;20.952;2023-12-04T03:29:21;-1.70;99.90
17284;DHT22;8760;52.248;20.952;2023-12-04T03:31:48;-1.60;99.90
17284;DHT22;8760;52.248;20.952;2023-12-04T03:34:16;-1.60;99.90
17284;DHT22;8760;52.248;20.952;2023-12-04T03:36:43;-1.60;99.90
17284;DHT22;8760;52.248;20.952;2023-12-04T03:39:10;-1.60;99.90
17284;DHT22;8760;52.248;20.952;2023-12-04T03:41:37;-1.60;99.90
17284;DHT22;8760;52.248;20.952;2023-12-04T03:44:04;-1.70;99.90
17284;DHT22;8760;52.248;20.952;2023-12-04T03:46:31;-1.70;99.90
17284;DHT22;8760;52.248;20.952;2023-12-04T03:48:57;-1.60;99.90
17284;DHT22;8760;52.248;20.952;2023-12-04T03:51:26;-1.70;99.90
17284;DHT22;8760;52.248;20.952;2023-12-04T03:53:52;-1.70;99.90
17284;DHT22;8760;52.248;20.952;2023-12-04T03:56:19;-1.70;99.90
17284;DHT22;8760;52.248;20.952;2023-12-04T03:58:46;-1.80;99.90
17284;DHT22;8760;52.248;20.952;2023-12-04T04:01:13;-1.80;99.90
17284;DHT22;8760;52.248;20.952;2023-12-04T04:03:40;-1.70;99.90
17284;DHT22;8760;52.248;20.952;2023-12-04T04:06:09;-1.70;99.90
17284;DHT22;8760;52.248;20.952;2023-12-04T04:08:37;-1.70;99.90
17284;DHT22;8760;52.248;20.952;2023-12-04T04:11:04;-1.70;99.90
17284;DHT22;8760;52.248;20.952;2023-12-04T04:13:31;-1.80;99.90
17284;DHT22;8760;52.248;20.952;2023-12-04T04:15:58;-1.80;99.90
17284;DHT22;8760;52.248;20.952;2023-12-04T04:18:24;-1.80;99.90
17284;DHT22;8760;52.248;20.952;2023-12-04T04:20:51;-1.90;99.90
17284;DHT22;8760;52.248;20.952;2023-12-04T04:23:18;-1.80;99.90
17284;DHT22;8760;52.248;20.952;2023-12-04T04:25:46;-1.80;99.90
17284;DHT22;8760;52.248;20.952;2023-12-04T04:28:13;-1.90;99.90
17284;DHT22;8760;52.248;20.952;2023-12-04T04:30:40;-1.90;99.90
17284;DHT22;8760;52.248;20.952;2023-12-04T04:33:06;-2.00;99.90
17284;DHT22;8760;52.248;20.952;2023-12-04T04:35:33;-2.00;99.90
17284;DHT22;8760;52.248;20.952;2023-12-04T04:38:00;-2.00;99.90
17284;DHT22;8760;52.248;20.952;2023-12-04T04:40:27;-2.10;99.90
17284;DHT22;8760;52.248;20.952;2023-12-04T04:42:55;-2.00;99.90
17284;DHT22;8760;52.248;20.952;2023-12-04T04:45:22;-2.00;99.90
17284;DHT22;8760;52.248;20.952;2023-12-04T04:47:49;-2.00;99.90
17284;DHT22;8760;52.248;20.952;2023-12-04T04:50:15;-2.00;99.90
17284;DHT22;8760;52.248;20.952;2023-12-04T04:52:42;-2.00;99.90
17284;DHT22;8760;52.248;20.952;2023-12-04T04:55:09;-1.90;99.90
17284;DHT22;8760;52.248;20.952;2023-12-04T04:57:36;-2.00;99.90
17284;DHT22;8760;52.248;20.952;2023-12-04T05:00:05;-1.90;99.90
17284;DHT22;8760;52.248;20.952;2023-12-04T05:02:32;-2.00;99.90
17284;DHT22;8760;52.248;20.952;2023-12-04T05:05:02;-2.00;99.90
17284;DHT22;8760;52.248;20.952;2023-12-04T05:07:29;-2.00;99.90
17284;DHT22;8760;52.248;20.952;2023-12-04T05:09:55;-2.00;99.90
17284;DHT22;8760;52.248;20.952;2023-12-04T05:12:22;-2.00;99.90
17284;DHT22;8760;52.248;20.952;2023-12-04T05:14:49;-1.90;99.90
17284;DHT22;8760;52.248;20.952;2023-12-04T05:17:17;-1.90;99.90
17284;DHT22;8760;52.248;20.952;2023-12-04T05:19:44;-2.00;99.90
17284;DHT22;8760;52.248;20.952;2023-12-04T05:22:11;-2.00;99.90
17284;DHT22;8760;52.248;20.952;2023-12-04T05:24:38;-2.00;99.90
17284;DHT22;8760;52.248;20.952;2023-12-04T05:27:04;-2.00;99.90
17284;DHT22;8760;52.248;20.952;2023-12-04T05:29:31;-2.00;99.90
17284;DHT22;8760;52.248;20.952;2023-12-04T05:31:58;-2.00;99.90
17284;DHT22;8760;52.248;20.952;2023-12-04T05:34:26;-2.00;99.90
17284;DHT22;8760;52.248;20.952;2023-12-04T05:36:53;-2.00;99.90
17284;DHT22;8760;52.248;20.952;2023-12-04T05:39:20;-2.00;99.90
17284;DHT22;8760;52.248;20.952;2023-12-04T05:41:47;-2.00;99.90
17284;DHT22;8760;52.248;20.952;2023-12-04T05:44:13;-2.00;99.90
17284;DHT22;8760;52.248;20.952;2023-12-04T05:46:40;-2.00;99.90
17284;DHT22;8760;52.248;20.952;2023-12-04T05:49:07;-2.00;99.90
17284;DHT22;8760;52.248;20.952;2023-12-04T05:51:37;-2.00;99.90
17284;DHT22;8760;52.248;20.952;2023-12-04T05:54:03;-1.90;99.90
17284;DHT22;8760;52.248;20.952;2023-12-04T05:56:30;-2.00;99.90
17284;DHT22;8760;52.248;20.952;2023-12-04T05:58:57;-2.00;99.90
17284;DHT22;8760;52.248;20.952;2023-12-04T06:01:24;-2.00;99.90
17284;DHT22;8760;52.248;20.952;2023-12-04T06:03:51;-2.00;99.90
17284;DHT22;8760;52.248;20.952;2023-12-04T06:06:17;-2.00;99.90
17284;DHT22;8760;52.248;20.952;2023-12-04T06:08:45;-2.00;99.90
17284;DHT22;8760;52.248;20.952;2023-12-04T06:11:12;-2.00;99.90
17284;DHT22;8760;52.248;20.952;2023-12-04T06:13:39;-1.90;99.90
17284;DHT22;8760;52.248;20.952;2023-12-04T06:16:07;-2.00;99.90
17284;DHT22;8760;52.248;20.952;2023-12-04T06:18:34;-1.90;99.90
17284;DHT22;8760;52.248;20.952;2023-12-04T06:21:00;-1.90;99.90
17284;DHT22;8760;52.248;20.952;2023-12-04T06:23:28;-1.90;99.90
17284;DHT22;8760;52.248;20.952;2023-12-04T06:25:57;-2.00;99.90
17284;DHT22;8760;52.248;20.952;2023-12-04T06:28:24;-2.00;99.90
17284;DHT22;8760;52.248;20.952;2023-12-04T06:30:51;-2.00;99.90
17284;DHT22;8760;52.248;20.952;2023-12-04T06:33:19;-2.00;99.90
17284;DHT22;8760;52.248;20.952;2023-12-04T06:35:46;-1.90;99.90
17284;DHT22;8760;52.248;20.952;2023-12-04T06:38:15;-1.90;99.90
17284;DHT22;8760;52.248;20.952;2023-12-04T06:40:43;-2.00;99.90
17284;DHT22;8760;52.248;20.952;2023-12-04T06:43:12;-2.00;99.90
17284;DHT22;8760;52.248;20.952;2023-12-04T06:45:41;-2.00;99.90
17284;DHT22;8760;52.248;20.952;2023-12-04T06:48:11;-2.00;99.90
17284;DHT22;8760;52.248;20.952;2023-12-04T06:50:39;-1.90;99.90
17284;DHT22;8760;52.248;20.952;2023-12-04T06:53:06;-1.90;99.90
17284;DHT22;8760;52.248;20.952;2023-12-04T06:55:33;-1.90;99.90
17284;DHT22;8760;52.248;20.952;2023-12-04T06:58:00;-1.90;99.90
17284;DHT22;8760;52.248;20.952;2023-12-04T07:00:28;-1.80;99.90
17284;DHT22;8760;52.248;20.952;2023-12-04T07:02:55;-1.80;99.90
17284;DHT22;8760;52.248;20.952;2023-12-04T07:05:22;-1.80;99.90
17284;DHT22;8760;52.248;20.952;2023-12-04T07:07:48;-1.80;99.90
17284;DHT22;8760;52.248;20.952;2023-12-04T07:10:16;-1.80;99.90
17284;DHT22;8760;52.248;20.952;2023-12-04T07:12:43;-1.70;99.90
17284;DHT22;8760;52.248;20.952;2023-12-04T07:15:11;-1.80;99.90
17284;DHT22;8760;52.248;20.952;2023-12-04T07:17:39;-1.70;99.90
17284;DHT22;8760;52.248;20.952;2023-12-04T07:20:07;-1.70;99.90
17284;DHT22;8760;52.248;20.952;2023-12-04T07:22:34;-1.70;99.90
17284;DHT22;8760;52.248;20.952;2023-12-04T07:25:01;-1.60;99.90
17284;DHT22;8760;52.248;20.952;2023-12-04T07:27:28;-1.60;99.90
17284;DHT22;8760;52.248;20.952;2023-12-04T07:29:54;-1.70;99.90
17284;DHT22;8760;52.248;20.952;2023-12-04T07:32:21;-1.60;99.90
17284;DHT22;8760;52.248;20.952;2023-12-04T07:34:50;-1.60;99.90
17284;DHT22;8760;52.248;20.952;2023-12-04T07:37:16;-1.70;99.90
17284;DHT22;8760;52.248;20.952;2023-12-04T07:39:43;-1.60;99.90
17284;DHT22;8760;52.248;20.952;2023-12-04T07:42:11;-1.60;99.90
17284;DHT22;8760;52.248;20.952;2023-12-04T07:44:38;-1.60;99.90
17284;DHT22;8760;52.248;20.952;2023-12-04T07:47:05;-1.50;99.90
17284;DHT22;8760;52.248;20.952;2023-12-04T07:49:32;-1.50;99.90
17284;DHT22;8760;52.248;20.952;2023-12-04T07:52:00;-1.40;99.90
17284;DHT22;8760;52.248;20.952;2023-12-04T07:54:27;-1.40;99.90
17284;DHT22;8760;52.248;20.952;2023-12-04T07:56:54;-1.30;99.90
17284;DHT22;8760;52.248;20.952;2023-12-04T07:59:21;-1.30;99.90
17284;DHT22;8760;52.248;20.952;2023-12-04T08:01:48;-1.30;99.90
17284;DHT22;8760;52.248;20.952;2023-12-04T08:04:15;-1.30;99.90
17284;DHT22;8760;52.248;20.952;2023-12-04T08:06:41;-1.30;99.90
17284;DHT22;8760;52.248;20.952;2023-12-04T08:09:09;-1.20;99.90
17284;DHT22;8760;52.248;20.952;2023-12-04T08:11:35;-1.20;99.90
17284;DHT22;8760;52.248;20.952;2023-12-04T08:14:02;-1.20;99.90
17284;DHT22;8760;52.248;20.952;2023-12-04T08:16:29;-1.20;99.90
17284;DHT22;8760;52.248;20.952;2023-12-04T08:18:56;-1.20;99.90
17284;DHT22;8760;52.248;20.952;2023-12-04T08:21:23;-1.30;99.90
17284;DHT22;8760;52.248;20.952;2023-12-04T08:23:50;-1.30;99.90
17284;DHT22;8760;52.248;20.952;2023-12-04T08:26:22;-1.40;99.90
17284;DHT22;8760;52.248;20.952;2023-12-04T08:28:49;-1.40;99.90
17284;DHT22;8760;52.248;20.952;2023-12-04T08:31:16;-1.40;99.90
17284;DHT22;8760;52.248;20.952;2023-12-04T08:33:43;-1.40;99.90
17284;DHT22;8760;52.248;20.952;2023-12-04T08:36:11;-1.30;99.90
17284;DHT22;8760;52.248;20.952;2023-12-04T08:38:38;-1.30;99.90
17284;DHT22;8760;52.248;20.952;2023-12-04T08:41:05;-1.30;99.90
17284;DHT22;8760;52.248;20.952;2023-12-04T08:43:34;-1.40;99.90
17284;DHT22;8760;52.248;20.952;2023-12-04T08:46:00;-1.30;99.90
17284;DHT22;8760;52.248;20.952;2023-12-04T08:48:27;-1.40;99.90
17284;DHT22;8760;52.248;20.952;2023-12-04T08:50:54;-1.30;99.90
17284;DHT22;8760;52.248;20.952;2023-12-04T08:53:22;-1.30;99.90
17284;DHT22;8760;52.248;20.952;2023-12-04T08:55:48;-1.40;99.90
17284;DHT22;8760;52.248;20.952;2023-12-04T08:58:17;-1.40;99.90
17284;DHT22;8760;52.248;20.952;2023-12-04T09:00:45;-1.50;99.90
17284;DHT22;8760;52.248;20.952;2023-12-04T09:03:12;-1.50;99.90
17284;DHT22;8760;52.248;20.952;2023-12-04T09:05:39;-1.50;99.90
17284;DHT22;8760;52.248;20.952;2023-12-04T09:08:06;-1.50;99.90
17284;DHT22;8760;52.248;20.952;2023-12-04T09:10:33;-1.50;99.90
17284;DHT22;8760;52.248;20.952;2023-12-04T09:13:00;-1.50;99.90
17284;DHT22;8760;52.248;20.952;2023-12-04T09:15:27;-1.40;99.90
17284;DHT22;8760;52.248;20.952;2023-12-04T09:17:55;-1.50;99.90
17284;DHT22;8760;52.248;20.952;2023-12-04T09:20:23;-1.40;99.90
17284;DHT22;8760;52.248;20.952;2023-12-04T09:22:50;-1.20;99.90
17284;DHT22;8760;52.248;20.952;2023-12-04T09:25:16;-1.20;99.90
17284;DHT22;8760;52.248;20.952;2023-12-04T09:27:43;-1.20;99.90
17284;DHT22;8760;52.248;20.952;2023-12-04T09:30:11;-1.10;99.90
17284;DHT22;8760;52.248;20.952;2023-12-04T09:32:39;-1.10;99.90
17284;DHT22;8760;52.248;20.952;2023-12-04T09:35:07;-1.00;99.90
17284;DHT22;8760;52.248;20.952;2023-12-04T09:37:34;-1.10;99.90
17284;DHT22;8760;52.248;20.952;2023-12-04T09:40:01;-1.20;99.90
17284;DHT22;8760;52.248;20.952;2023-12-04T09:42:29;-1.10;99.90
17284;DHT22;8760;52.248;20.952;2023-12-04T09:44:58;-1.20;99.90
17284;DHT22;8760;52.248;20.952;2023-12-04T09:47:27;-1.20;99.90
17284;DHT22;8760;52.248;20.952;2023-12-04T09:49:54;-1.10;99.90
17284;DHT22;8760;52.248;20.952;2023-12-04T09:52:22;-1.00;99.90
17284;DHT22;8760;52.248;20.952;2023-12-04T09:54:50;-1.00;99.90
17284;DHT22;8760;52.248;20.952;2023-12-04T09:57:17;-1.00;99.90
17284;DHT22;8760;52.248;20.952;2023-12-04T09:59:45;-1.10;99.90
17284;DHT22;8760;52.248;20.952;2023-12-04T10:02:11;-1.20;99.90
17284;DHT22;8760;52.248;20.952;2023-12-04T10:04:39;-1.10;99.90
17284;DHT22;8760;52.248;20.952;2023-12-04T10:07:06;-1.20;99.90
17284;DHT22;8760;52.248;20.952;2023-12-04T10:09:34;-1.20;99.90
17284;DHT22;8760;52.248;20.952;2023-12-04T10:12:01;-1.10;99.90
17284;DHT22;8760;52.248;20.952;2023-12-04T10:14:29;-1.20;99.90
17284;DHT22;8760;52.248;20.952;2023-12-04T10:16:55;-1.10;99.90
17284;DHT22;8760;52.248;20.952;2023-12-04T10:19:24;-1.00;99.90
17284;DHT22;8760;52.248;20.952;2023-12-04T10:21:53;-0.90;99.90
17284;DHT22;8760;52.248;20.952;2023-12-04T10:24:31;-0.90;99.90
17284;DHT22;8760;52.248;20.952;2023-12-04T10:27:00;-0.80;99.90
17284;DHT22;8760;52.248;20.952;2023-12-04T10:29:28;-0.80;99.90
17284;DHT22;8760;52.248;20.952;2023-12-04T10:31:59;-0.90;99.90
17284;DHT22;8760;52.248;20.952;2023-12-04T10:34:26;-0.90;99.90
17284;DHT22;8760;52.248;20.952;2023-12-04T10:36:53;-0.80;99.90
17284;DHT22;8760;52.248;20.952;2023-12-04T10:39:20;-0.70;99.90
17284;DHT22;8760;52.248;20.952;2023-12-04T10:42:00;-0.70;99.90
17284;DHT22;8760;52.248;20.952;2023-12-04T10:44:28;-0.60;99.90
17284;DHT22;8760;52.248;20.952;2023-12-04T10:46:56;-0.50;99.90
17284;DHT22;8760;52.248;20.952;2023-12-04T10:49:26;-0.40;99.90
17284;DHT22;8760;52.248;20.952;2023-12-04T10:51:55;-0.30;99.90
17284;DHT22;8760;52.248;20.952;2023-12-04T10:54:23;-0.20;99.90
17284;DHT22;8760;52.248;20.952;2023-12-04T10:56:52;-0.10;99.90
17284;DHT22;8760;52.248;20.952;2023-12-04T10:59:25;0.10;99.90
17284;DHT22;8760;52.248;20.952;2023-12-04T11:01:54;0.20;99.90
17284;DHT22;8760;52.248;20.952;2023-12-04T11:04:24;0.30;99.90
17284;DHT22;8760;52.248;20.952;2023-12-04T11:06:53;0.50;99.90
17284;DHT22;8760;52.248;20.952;2023-12-04T11:09:21;0.50;99.90
17284;DHT22;8760;52.248;20.952;2023-12-04T11:11:56;0.50;99.90
17284;DHT22;8760;52.248;20.952;2023-12-04T11:14:31;0.30;99.90
17284;DHT22;8760;52.248;20.952;2023-12-04T11:17:02;0.30;99.90
17284;DHT22;8760;52.248;20.952;2023-12-04T11:19:37;0.20;99.90
17284;DHT22;8760;52.248;20.952;2023-12-04T11:22:07;0.30;99.90
17284;DHT22;8760;52.248;20.952;2023-12-04T11:24:35;0.30;99.90
17284;DHT22;8760;52.248;20.952;2023-12-04T11:27:03;0.30;99.90
17284;DHT22;8760;52.248;20.952;2023-12-04T11:29:32;0.10;99.90
17284;DHT22;8760;52.248;20.952;2023-12-04T11:31:59;0.00;99.90
17284;DHT22;8760;52.248;20.952;2023-12-04T11:34:26;0.10;99.90
17284;DHT22;8760;52.248;20.952;2023-12-04T11:36:53;0.00;99.90
17284;DHT22;8760;52.248;20.952;2023-12-04T11:39:21;-0.10;99.90
17284;DHT22;8760;52.248;20.952;2023-12-04T11:41:50;0.00;99.90
17284;DHT22;8760;52.248;20.952;2023-12-04T11:44:18;0.10;99.90
17284;DHT22;8760;52.248;20.952;2023-12-04T11:47:03;0.10;99.90
17284;DHT22;8760;52.248;20.952;2023-12-04T11:49:30;0.20;99.90
17284;DHT22;8760;52.248;20.952;2023-12-04T11:51:58;0.10;99.90
17284;DHT22;8760;52.248;20.952;2023-12-04T11:54:27;0.10;99.90
17284;DHT22;8760;52.248;20.952;2023-12-04T11:56:59;0.00;99.90
17284;DHT22;8760;52.248;20.952;2023-12-04T11:59:26;0.10;99.90
17284;DHT22;8760;52.248;20.952;2023-12-04T12:01:54;0.10;99.90
17284;DHT22;8760;52.248;20.952;2023-12-04T12:04:23;0.10;99.90
17284;DHT22;8760;52.248;20.952;2023-12-04T12:06:50;0.10;99.90
17284;DHT22;8760;52.248;20.952;2023-12-04T12:09:17;0.00;99.90
17284;DHT22;8760;52.248;20.952;2023-12-04T12:11:45;0.00;99.90
17284;DHT22;8760;52.248;20.952;2023-12-04T12:14:12;0.00;99.90
17284;DHT22;8760;52.248;20.952;2023-12-04T12:16:39;0.10;99.90
17284;DHT22;8760;52.248;20.952;2023-12-04T12:19:07;0.10;99.90
17284;DHT22;8760;52.248;20.952;2023-12-04T12:21:36;0.20;99.90
17284;DHT22;8760;52.248;20.952;2023-12-04T12:24:03;0.20;99.90
17284;DHT22;8760;52.248;20.952;2023-12-04T12:26:32;0.10;99.90
17284;DHT22;8760;52.248;20.952;2023-12-04T12:28:59;0.20;99.90
17284;DHT22;8760;52.248;20.952;2023-12-04T12:31:25;0.30;99.90
17284;DHT22;8760;52.248;20.952;2023-12-04T12:33:52;0.30;99.90
17284;DHT22;8760;52.248;20.952;2023-12-04T12:36:22;0.20;99.90
17284;DHT22;8760;52.248;20.952;2023-12-04T12:38:50;0.30;99.90
17284;DHT22;8760;52.248;20.952;2023-12-04T12:41:17;0.30;99.90
17284;DHT22;8760;52.248;20.952;2023-12-04T12:43:44;0.40;99.90
17284;DHT22;8760;52.248;20.952;2023-12-04T12:46:11;0.40;99.90
17284;DHT22;8760;52.248;20.952;2023-12-04T12:48:38;0.40;99.90
17284;DHT22;8760;52.248;20.952;2023-12-04T12:51:06;0.40;99.90
17284;DHT22;8760;52.248;20.952;2023-12-04T12:53:33;0.50;99.90
17284;DHT22;8760;52.248;20.952;2023-12-04T12:56:02;0.60;99.90
17284;DHT22;8760;52.248;20.952;2023-12-04T12:58:29;0.60;99.90
17284;DHT22;8760;52.248;20.952;2023-12-04T13:00:56;0.50;99.90
17284;DHT22;8760;52.248;20.952;2023-12-04T13:03:23;0.60;99.90
17284;DHT22;8760;52.248;20.952;2023-12-04T13:05:50;0.60;99.90
17284;DHT22;8760;52.248;20.952;2023-12-04T13:08:17;0.50;99.90
17284;DHT22;8760;52.248;20.952;2023-12-04T13:10:44;0.40;99.90
17284;DHT22;8760;52.248;20.952;2023-12-04T13:13:12;0.40;99.90
17284;DHT22;8760;52.248;20.952;2023-12-04T13:15:39;0.30;99.90
17284;DHT22;8760;52.248;20.952;2023-12-04T13:18:08;0.30;99.90
17284;DHT22;8760;52.248;20.952;2023-12-04T13:20:35;0.30;99.90
17284;DHT22;8760;52.248;20.952;2023-12-04T13:23:01;0.20;99.90
17284;DHT22;8760;52.248;20.952;2023-12-04T13:25:28;0.20;99.90
17284;DHT22;8760;52.248;20.952;2023-12-04T13:27:55;0.20;99.90
17284;DHT22;8760;52.248;20.952;2023-12-04T13:30:23;0.20;99.90
17284;DHT22;8760;52.248;20.952;2023-12-04T13:32:51;0.30;99.90
17284;DHT22;8760;52.248;20.952;2023-12-04T13:35:18;0.20;99.90
17284;DHT22;8760;52.248;20.952;2023-12-04T13:37:45;0.30;99.90
17284;DHT22;8760;52.248;20.952;2023-12-04T13:40:12;0.30;99.90
17284;DHT22;8760;52.248;20.952;2023-12-04T13:42:41;0.20;99.90
17284;DHT22;8760;52.248;20.952;2023-12-04T13:45:27;0.10;99.90
17284;DHT22;8760;52.248;20.952;2023-12-04T13:47:54;0.10;99.90
17284;DHT22;8760;52.248;20.952;2023-12-04T13:50:21;0.10;99.90
17284;DHT22;8760;52.248;20.952;2023-12-04T13:52:48;0.10;99.90
17284;DHT22;8760;52.248;20.952;2023-12-04T13:55:21;0.10;99.90
17284;DHT22;8760;52.248;20.952;2023-12-04T13:58:02;0.10;99.90
17284;DHT22;8760;52.248;20.952;2023-12-04T14:00:37;0.10;99.90
17284;DHT22;8760;52.248;20.952;2023-12-04T14:03:03;0.10;99.90
17284;DHT22;8760;52.248;20.952;2023-12-04T14:05:30;0.10;99.90
17284;DHT22;8760;52.248;20.952;2023-12-04T14:07:57;0.10;99.90
17284;DHT22;8760;52.248;20.952;2023-12-04T14:10:26;0.00;99.90
17284;DHT22;8760;52.248;20.952;2023-12-04T14:12:53;0.00;99.90
17284;DHT22;8760;52.248;20.952;2023-12-04T14:15:20;0.00;99.90
17284;DHT22;8760;52.248;20.952;2023-12-04T14:17:48;0.00;99.90
17284;DHT22;8760;52.248;20.952;2023-12-04T14:20:15;-0.10;99.90
17284;DHT22;8760;52.248;20.952;2023-12-04T14:22:45;-0.10;99.90
17284;DHT22;8760;52.248;20.952;2023-12-04T14:25:12;-0.10;99.90
17284;DHT22;8760;52.248;20.952;2023-12-04T14:27:39;-0.10;99.90
17284;DHT22;8760;52.248;20.952;2023-12-04T14:30:09;-0.10;99.90
17284;DHT22;8760;52.248;20.952;2023-12-04T14:32:36;-0.20;99.90
17284;DHT22;8760;52.248;20.952;2023-12-04T14:35:06;-0.20;99.90
17284;DHT22;8760;52.248;20.952;2023-12-04T14:37:34;-0.20;99.90
17284;DHT22;8760;52.248;20.952;2023-12-04T14:40:01;-0.10;99.90
17284;DHT22;8760;52.248;20.952;2023-12-04T14:42:30;-0.10;99.90
17284;DHT22;8760;52.248;20.952;2023-12-04T14:44:56;-0.20;99.90
17284;DHT22;8760;52.248;20.952;2023-12-04T14:47:22;-0.20;99.90
17284;DHT22;8760;52.248;20.952;2023-12-04T14:49:49;-0.20;99.90
17284;DHT22;8760;52.248;20.952;2023-12-04T14:52:21;-0.30;99.90
17284;DHT22;8760;52.248;20.952;2023-12-04T14:54:48;-0.20;99.90
17284;DHT22;8760;52.248;20.952;2023-12-04T14:57:38;-0.20;99.90
17284;DHT22;8760;52.248;20.952;2023-12-04T15:00:22;-0.30;99.90
17284;DHT22;8760;52.248;20.952;2023-12-04T15:03:21;-0.30;99.90
17284;DHT22;8760;52.248;20.952;2023-12-04T15:06:23;-0.30;99.90
17284;DHT22;8760;52.248;20.952;2023-12-04T15:09:08;-0.40;99.90
17284;DHT22;8760;52.248;20.952;2023-12-04T15:12:03;-0.40;99.90
17284;DHT22;8760;52.248;20.952;2023-12-04T15:14:43;-0.40;99.90
17284;DHT22;8760;52.248;20.952;2023-12-04T15:17:17;-0.50;99.90
17284;DHT22;8760;52.248;20.952;2023-12-04T15:19:54;-0.50;99.90
17284;DHT22;8760;52.248;20.952;2023-12-04T15:22:44;-0.50;99.90
17284;DHT22;8760;52.248;20.952;2023-12-04T15:25:11;-0.50;99.90
17284;DHT22;8760;52.248;20.952;2023-12-04T15:27:39;-0.50;99.90
17284;DHT22;8760;52.248;20.952;2023-12-04T15:30:05;-0.50;99.90
17284;DHT22;8760;52.248;20.952;2023-12-04T15:32:34;-0.50;99.90
17284;DHT22;8760;52.248;20.952;2023-12-04T15:35:00;-0.50;99.90
17284;DHT22;8760;52.248;20.952;2023-12-04T15:37:27;-0.50;99.90
17284;DHT22;8760;52.248;20.952;2023-12-04T15:39:52;-0.50;99.90